Home > Products > Valid Products > TAF

000
FTUS44 KLUB 020315 AAA
TAFLBB
TAF AMD
KLBB 020315Z 0203/0224 18014KT P6SM SCT250
     FM021000 20010KT P6SM SCT015 SCT200
     FM021400 21012KT P6SM SCT200=



000
FTUS44 KLUB 012336
TAFCDS
TAF
KCDS 012336Z 0200/0224 20014G20KT P6SM SCT250
     FM020100 20012KT P6SM SCT250=



000
FTUS44 KLUB 012336
TAFLBB
TAF
KLBB 012336Z 0200/0224 20014KT P6SM FEW100 SCT250
     FM020100 20010KT P6SM SCT250=



000
FTUS44 KLUB 012336
TAFCDS
TAF
KCDS 012336Z 0200/0224 20014G20KT P6SM SCT250
     FM020100 20012KT P6SM SCT250=



000
FTUS44 KLUB 012336
TAFLBB
TAF
KLBB 012336Z 0200/0224 20014KT P6SM FEW100 SCT250
     FM020100 20010KT P6SM SCT250=



000
FTUS44 KLUB 011720
TAFLBB
TAF
KLBB 011720Z 0118/0218 20012KT P6SM FEW250
     FM020100 15011KT P6SM FEW100 SCT200=



000
FTUS44 KLUB 011720
TAFCDS
TAF
KCDS 011720Z 0118/0218 22014G20KT P6SM SCT250
     FM020100 17013KT P6SM SCT200=



000
FTUS44 KLUB 011720
TAFLBB
TAF
KLBB 011720Z 0118/0218 20012KT P6SM FEW250
     FM020100 15011KT P6SM FEW100 SCT200=



000
FTUS44 KLUB 011720
TAFCDS
TAF
KCDS 011720Z 0118/0218 22014G20KT P6SM SCT250
     FM020100 17013KT P6SM SCT200=



000
FTUS44 KLUB 011503 AAB
TAFLBB
TAF AMD
KLBB 011503Z 0115/0212 24013KT P6SM FEW250
     FM011700 21011KT P6SM SCT060
     FM020100 15012KT P6SM FEW100 SCT200=



000
FTUS44 KLUB 011503 AAB
TAFLBB
TAF AMD
KLBB 011503Z 0115/0212 24013KT P6SM FEW250
     FM011700 21011KT P6SM SCT060
     FM020100 15012KT P6SM FEW100 SCT200=



000
FTUS44 KLUB 011216 AAA
TAFLBB
TAF AMD
KLBB 011216Z 0112/0212 22011KT P6SM FEW015
     FM011500 21013G22KT P6SM SCT035
     FM011700 21011KT P6SM SCT080
     FM020100 15012KT P6SM FEW100 SCT200=



000
FTUS44 KLUB 011216 AAA
TAFLBB
TAF AMD
KLBB 011216Z 0112/0212 22011KT P6SM FEW015
     FM011500 21013G22KT P6SM SCT035
     FM011700 21011KT P6SM SCT080
     FM020100 15012KT P6SM FEW100 SCT200=



000
FTUS44 KLUB 011120
TAFCDS
TAF
KCDS 011120Z 0112/0212 22008KT P6SM FEW250
     FM011500 22015G23KT P6SM FEW080
     FM020100 17013KT P6SM SCT200=



000
FTUS44 KLUB 011120
TAFLBB
TAF
KLBB 011120Z 0112/0212 22011KT P6SM FEW015
     FM011500 21012G22KT P6SM SCT080
     FM020100 15012KT P6SM FEW100 SCT200=



000
FTUS44 KLUB 011120
TAFCDS
TAF
KCDS 011120Z 0112/0212 22008KT P6SM FEW250
     FM011500 22015G23KT P6SM FEW080
     FM020100 17013KT P6SM SCT200=



000
FTUS44 KLUB 011120
TAFLBB
TAF
KLBB 011120Z 0112/0212 22011KT P6SM FEW015
     FM011500 21012G22KT P6SM SCT080
     FM020100 15012KT P6SM FEW100 SCT200=



000
FTUS44 KLUB 010520
TAFLBB
TAF
KLBB 010520Z 0106/0206 18011KT P6SM FEW015
     FM011500 21013G26KT P6SM SCT080=



000
FTUS44 KLUB 010520
TAFCDS
TAF
KCDS 010520Z 0106/0206 20008KT P6SM SCT200
     FM011500 22015KT P6SM FEW080=



000
FTUS44 KLUB 010520
TAFCDS
TAF
KCDS 010520Z 0106/0206 20008KT P6SM SCT200
     FM011500 22015KT P6SM FEW080=



000
FTUS44 KLUB 010520
TAFLBB
TAF
KLBB 010520Z 0106/0206 18011KT P6SM FEW015
     FM011500 21013G26KT P6SM SCT080=



000
FTUS44 KLUB 302332
TAFCDS
TAF
KCDS 302332Z 0100/0124 20008KT P6SM SCT200
     FM011500 22015KT P6SM FEW070=



000
FTUS44 KLUB 302332
TAFLBB
TAF
KLBB 302332Z 0100/0124 15011KT P6SM FEW070 SCT250
     FM010400 21012KT P6SM FEW025
     FM011500 21016G26KT P6SM FEW070=



000
FTUS44 KLUB 301720
TAFLBB
TAF
KLBB 301720Z 3018/0118 VRB06KT P6SM FEW050 SCT250
     FM302100 17011KT P6SM FEW070 SCT250=



000
FTUS44 KLUB 301720
TAFLBB
TAF
KLBB 301720Z 3018/0118 VRB06KT P6SM FEW050 SCT250
     FM302100 17011KT P6SM FEW070 SCT250=



000
FTUS44 KLUB 301720
TAFCDS
TAF
KCDS 301720Z 3018/0118 VRB06KT P6SM SKC
     FM010200 17008KT P6SM SKC=



000
FTUS44 KLUB 301720
TAFCDS
TAF
KCDS 301720Z 3018/0118 VRB06KT P6SM SKC
     FM010200 17008KT P6SM SKC=



000
FTUS44 KLUB 301225 AAB
TAFLBB
TAF AMD
KLBB 301225Z 3012/0112 20014KT P6SM FEW060 BKN300=



000
FTUS44 KLUB 301225 AAB
TAFLBB
TAF AMD
KLBB 301225Z 3012/0112 20014KT P6SM FEW060 BKN300=



000
FTUS44 KLUB 301151 AAA
TAFLBB
TAF AMD
KLBB 301151Z 3012/0112 20014KT P6SM FEW060 BKN300
      TEMPO 3012/3014 BKN010=



000
FTUS44 KLUB 301151 AAA
TAFLBB
TAF AMD
KLBB 301151Z 3012/0112 20014KT P6SM FEW060 BKN300
      TEMPO 3012/3014 BKN010=



000
FTUS44 KLUB 301120
TAFCDS
TAF
KCDS 301120Z 3012/0112 18011KT P6SM FEW070 SCT300=



000
FTUS44 KLUB 301120
TAFCDS
TAF
KCDS 301120Z 3012/0112 18011KT P6SM FEW070 SCT300=



000
FTUS44 KLUB 301120
TAFLBB
TAF
KLBB 301120Z 3012/0112 20014KT P6SM FEW060 BKN300=



000
FTUS44 KLUB 301120
TAFLBB
TAF
KLBB 301120Z 3012/0112 20014KT P6SM FEW060 BKN300=



000
FTUS44 KLUB 300520
TAFLBB
TAF
KLBB 300520Z 3006/0106 04007KT P6SM SCT150 BKN200
     FM301500 23010KT P6SM FEW150=



000
FTUS44 KLUB 300520
TAFCDS
TAF
KCDS 300520Z 3006/0106 14012KT P6SM FEW080 SCT150
     FM300800 VRB04KT P6SM SCT150
     FM301800 18011KT P6SM SCT200=



000
FTUS44 KLUB 300424 AAB
TAFCDS
TAF AMD
KCDS 300424Z 3004/3024 14012KT P6SM FEW080 SCT150
     FM300800 VRB04KT P6SM SCT150
     FM301800 18011KT P6SM SCT200=



000
FTUS44 KLUB 300419 AAA
TAFLBB
TAF AMD
KLBB 300419Z 3004/3024 04007KT P6SM SCT080 BKN200
     FM301500 23010KT P6SM FEW150=



000
FTUS44 KLUB 300206 AAA
TAFCDS
TAF AMD
KCDS 300206Z 3002/3024 18009KT P6SM VCTS SCT080CB BKN100
      TEMPO 3002/3004 5SM TSRA BKN050CB
     FM300400 19006KT P6SM FEW080 SCT150=



000
FTUS44 KLUB 292320
TAFCDS
TAF
KCDS 292320Z 3000/3024 18009KT P6SM VCTS SCT080CB BKN100
     FM300400 19006KT P6SM FEW080 SCT150=



000
FTUS44 KLUB 292320
TAFLBB
TAF
KLBB 292320Z 3000/3024 16011KT P6SM VCTS SCT070CB BKN200
      TEMPO 3000/3002 VRB30KT -TSRA BKN070CB BKN200
     FM300400 17008KT P6SM SCT080 SCT100=



000
FTUS44 KLUB 291723
TAFCDS
TAF
KCDS 291723Z 2918/3018 18012KT P6SM SCT250
     FM292200 11009KT P6SM VCTS SCT080CB BKN100
     FM300300 15006KT P6SM FEW080 SCT150=



000
FTUS44 KLUB 291723
TAFLBB
TAF
KLBB 291723Z 2918/3018 VRB05KT P6SM FEW220 BKN280
     FM292000 16011KT P6SM VCTS SCT070CB BKN200
     FM300400 17007KT P6SM SCT080 BKN100=



000
FTUS44 KLUB 291723
TAFCDS
TAF
KCDS 291723Z 2918/3018 18012KT P6SM SCT250
     FM292200 11009KT P6SM VCTS SCT080CB BKN100
     FM300300 15006KT P6SM FEW080 SCT150=



000
FTUS44 KLUB 291723
TAFLBB
TAF
KLBB 291723Z 2918/3018 VRB05KT P6SM FEW220 BKN280
     FM292000 16011KT P6SM VCTS SCT070CB BKN200
     FM300400 17007KT P6SM SCT080 BKN100=



000
FTUS44 KLUB 291120
TAFCDS
TAF
KCDS 291120Z 2912/3012 19006KT P6SM BKN100 BKN250
     FM292200 11009KT P6SM VCTS SCT080CB BKN100
     FM300300 15006KT P6SM FEW080 SCT150=



000
FTUS44 KLUB 291120
TAFLBB
TAF
KLBB 291120Z 2912/3012 23008KT P6SM BKN100 BKN250
     FM292000 16011KT P6SM VCTS SCT070CB BKN200
     FM300400 17007KT P6SM SCT080 BKN100=



000
FTUS44 KLUB 291120
TAFLBB
TAF
KLBB 291120Z 2912/3012 23008KT P6SM BKN100 BKN250
     FM292000 16011KT P6SM VCTS SCT070CB BKN200
     FM300400 17007KT P6SM SCT080 BKN100=



000
FTUS44 KLUB 291120
TAFCDS
TAF
KCDS 291120Z 2912/3012 19006KT P6SM BKN100 BKN250
     FM292200 11009KT P6SM VCTS SCT080CB BKN100
     FM300300 15006KT P6SM FEW080 SCT150=



000
FTUS44 KLUB 290520
TAFCDS
TAF
KCDS 290520Z 2906/3006 19008KT P6SM SCT070 SCT250
     FM292100 16009KT P6SM SCT070 BKN120 PROB30 2921/3003 -TSRA
      BKN070CB=



000
FTUS44 KLUB 290520
TAFCDS
TAF
KCDS 290520Z 2906/3006 19008KT P6SM SCT070 SCT250
     FM292100 16009KT P6SM SCT070 BKN120 PROB30 2921/3003 -TSRA
      BKN070CB=



000
FTUS44 KLUB 290520
TAFLBB
TAF
KLBB 290520Z 2906/3006 18009KT P6SM SCT070 SCT250
     FM292200 16009KT P6SM SCT070 BKN120 PROB30 2922/3004 -TSRA
      BKN070CB=



000
FTUS44 KLUB 290520
TAFLBB
TAF
KLBB 290520Z 2906/3006 18009KT P6SM SCT070 SCT250
     FM292200 16009KT P6SM SCT070 BKN120 PROB30 2922/3004 -TSRA
      BKN070CB=



    US Dept of Commerce
    National Oceanic and Atmospheric Administration
    National Weather Service
    1325 East West Highway
    Silver Spring, MD 20910
    Page Author: NWS Internet Services Team
Disclaimer
Information Quality
Credits
Glossary
Privacy Policy
Freedom of Information Act (FOIA)
About Us
Career Opportunities